Главная страница
METAR-TAF:

METAR-TAF

Аэропорты :

Чебоксары, Россия

широта: 56-05-24N, долгота: 047-20-50E, высота над уровнем моря: 171 м

Текущие метеонаблюдения

Эта сводка был подготовлена 34 минут назад, в 02:00 UTC
Ветер 8 Узел от восточно-северо-восточный
Температура -4°C
Влажность 93%
Давление 1025 hPa
Видимость 10 км и более
Рассеянная облачность на высоте 700 фута

METAR: UWKS 140200Z 06004MPS 9999 BKN007 M04/M05 Q1025 R06/490245 TEMPO 2000 BR OVC006 RMK QFE753

Время: 05:34 (02:34 UTC)

Прогноз

Эта сводка был подготовлена 3 часа и 52 минут назад, в 22:42 UTC
Прогноз действительный с 14-го 00 UTC до 14-го 09 UTC
Ветер 10 Узел от северо-восточный с порывами до 19 Узел
Видимость: 3100 м
Рассеянная облачность на высоте 1100 фута
небольшой снег, дымка
временами
С 14-го 00 UTC до 14-го 08 UTC
Сплошная облачность на высоте 700 фута

TAF: UWKS 132242Z 1400/1409 05005G10MPS 3100 -SN BR BKN011 TEMPO 1400/1408 OVC007

Метеонаблюдения и прогнозы для более 4000 аэропортов (сводки METAR и TAF).

Имеющиеся станции представлены на карте желтыми и красными точками.

Чтобы увидеть название станции, наведите на нее мышь.

Затем щелкните, чтобы увидеть метеонаблюдения и метеопрогнозы.

Управление картой: чтобы увеличить масштаб, щелкните зеленые кнопки с черным крестиком; чтобы уменьшить масштаб, щелкните зеленую кнопку с тире; для просмотра соседних карт щелкайте зеленые стрелки.


METAR-TAF: